sensor_id;sensor_type;location;lat;lon;timestamp;P1;durP1;ratioP1;P2;durP2;ratioP2
59263;SDS011;45030;42.720;23.344;2022-10-04T00:00:56;5.53;;;2.70;;
59263;SDS011;45030;42.720;23.344;2022-10-04T00:03:08;2.97;;;2.20;;
59263;SDS011;45030;42.720;23.344;2022-10-04T00:05:34;6.25;;;2.75;;
59263;SDS011;45030;42.720;23.344;2022-10-04T00:08:05;2.63;;;2.30;;
59263;SDS011;45030;42.720;23.344;2022-10-04T00:10:32;4.03;;;2.90;;
59263;SDS011;45030;42.720;23.344;2022-10-04T00:13:13;4.25;;;2.95;;
59263;SDS011;45030;42.720;23.344;2022-10-04T00:15:39;3.72;;;2.60;;
59263;SDS011;45030;42.720;23.344;2022-10-04T00:25:49;4.65;;;2.40;;
59263;SDS011;45030;42.720;23.344;2022-10-04T00:33:33;4.38;;;2.50;;
59263;SDS011;45030;42.720;23.344;2022-10-04T00:35:59;4.47;;;2.30;;
59263;SDS011;45030;42.720;23.344;2022-10-04T00:38:24;3.22;;;2.30;;
59263;SDS011;45030;42.720;23.344;2022-10-04T00:41:02;4.25;;;3.03;;
59263;SDS011;45030;42.720;23.344;2022-10-04T00:43:36;2.30;;;2.10;;
59263;SDS011;45030;42.720;23.344;2022-10-04T00:46:05;4.03;;;2.60;;
59263;SDS011;45030;42.720;23.344;2022-10-04T00:51:01;5.78;;;2.25;;
59263;SDS011;45030;42.720;23.344;2022-10-04T00:53:40;4.45;;;2.28;;
59263;SDS011;45030;42.720;23.344;2022-10-04T00:56:28;4.03;;;2.38;;
59263;SDS011;45030;42.720;23.344;2022-10-04T01:01:21;2.63;;;2.22;;
59263;SDS011;45030;42.720;23.344;2022-10-04T01:03:47;3.35;;;2.00;;
59263;SDS011;45030;42.720;23.344;2022-10-04T01:06:13;6.10;;;2.30;;
59263;SDS011;45030;42.720;23.344;2022-10-04T01:08:40;5.28;;;2.25;;
59263;SDS011;45030;42.720;23.344;2022-10-04T01:11:12;4.15;;;2.22;;
59263;SDS011;45030;42.720;23.344;2022-10-04T01:13:40;3.35;;;2.00;;
59263;SDS011;45030;42.720;23.344;2022-10-04T01:18:36;2.10;;;1.63;;
59263;SDS011;45030;42.720;23.344;2022-10-04T01:21:06;3.45;;;2.33;;
59263;SDS011;45030;42.720;23.344;2022-10-04T01:25:57;2.15;;;1.90;;
59263;SDS011;45030;42.720;23.344;2022-10-04T01:28:23;2.75;;;2.00;;
59263;SDS011;45030;42.720;23.344;2022-10-04T01:30:48;3.55;;;1.90;;
59263;SDS011;45030;42.720;23.344;2022-10-04T01:33:13;6.30;;;2.20;;
59263;SDS011;45030;42.720;23.344;2022-10-04T01:35:39;3.53;;;1.98;;
59263;SDS011;45030;42.720;23.344;2022-10-04T01:38:04;3.25;;;2.35;;
59263;SDS011;45030;42.720;23.344;2022-10-04T01:40:34;2.78;;;2.00;;
59263;SDS011;45030;42.720;23.344;2022-10-04T01:43:01;2.60;;;2.17;;
59263;SDS011;45030;42.720;23.344;2022-10-04T01:45:29;2.70;;;2.20;;
59263;SDS011;45030;42.720;23.344;2022-10-04T01:48:00;2.92;;;2.22;;
59263;SDS011;45030;42.720;23.344;2022-10-04T01:52:55;2.90;;;2.08;;
59263;SDS011;45030;42.720;23.344;2022-10-04T01:55:27;3.50;;;2.15;;
59263;SDS011;45030;42.720;23.344;2022-10-04T01:57:55;3.05;;;2.20;;
59263;SDS011;45030;42.720;23.344;2022-10-04T02:00:22;2.42;;;1.90;;
59263;SDS011;45030;42.720;23.344;2022-10-04T02:02:53;4.55;;;2.22;;
59263;SDS011;45030;42.720;23.344;2022-10-04T02:05:27;3.38;;;1.95;;
59263;SDS011;45030;42.720;23.344;2022-10-04T02:07:54;2.08;;;1.83;;
59263;SDS011;45030;42.720;23.344;2022-10-04T02:10:19;2.67;;;2.20;;
59263;SDS011;45030;42.720;23.344;2022-10-04T02:12:47;3.95;;;2.05;;
59263;SDS011;45030;42.720;23.344;2022-10-04T02:15:13;3.50;;;2.10;;
59263;SDS011;45030;42.720;23.344;2022-10-04T02:17:40;3.35;;;1.90;;
59263;SDS011;45030;42.720;23.344;2022-10-04T02:20:16;2.05;;;1.85;;
59263;SDS011;45030;42.720;23.344;2022-10-04T02:22:43;2.30;;;2.10;;
59263;SDS011;45030;42.720;23.344;2022-10-04T02:25:09;2.58;;;2.00;;
59263;SDS011;45030;42.720;23.344;2022-10-04T02:27:35;3.25;;;2.35;;
59263;SDS011;45030;42.720;23.344;2022-10-04T02:30:05;2.92;;;1.75;;
59263;SDS011;45030;42.720;23.344;2022-10-04T02:32:31;3.88;;;2.13;;
59263;SDS011;45030;42.720;23.344;2022-10-04T02:35:15;3.58;;;2.25;;
59263;SDS011;45030;42.720;23.344;2022-10-04T02:37:41;8.60;;;4.30;;
59263;SDS011;45030;42.720;23.344;2022-10-04T02:40:07;3.58;;;2.10;;
59263;SDS011;45030;42.720;23.344;2022-10-04T02:47:47;4.20;;;2.50;;
59263;SDS011;45030;42.720;23.344;2022-10-04T02:50:23;2.80;;;2.10;;
59263;SDS011;45030;42.720;23.344;2022-10-04T02:52:53;2.70;;;2.15;;
59263;SDS011;45030;42.720;23.344;2022-10-04T02:55:20;2.80;;;2.30;;
59263;SDS011;45030;42.720;23.344;2022-10-04T02:57:46;2.97;;;2.03;;
59263;SDS011;45030;42.720;23.344;2022-10-04T03:00:21;2.67;;;2.33;;
59263;SDS011;45030;42.720;23.344;2022-10-04T03:07:56;2.80;;;2.50;;
59263;SDS011;45030;42.720;23.344;2022-10-04T03:10:21;5.03;;;1.92;;
59263;SDS011;45030;42.720;23.344;2022-10-04T03:12:49;4.43;;;2.15;;
59263;SDS011;45030;42.720;23.344;2022-10-04T03:15:15;6.28;;;2.70;;
59263;SDS011;45030;42.720;23.344;2022-10-04T03:17:40;4.68;;;2.13;;
59263;SDS011;45030;42.720;23.344;2022-10-04T03:20:07;3.28;;;2.75;;
59263;SDS011;45030;42.720;23.344;2022-10-04T03:22:34;2.95;;;2.60;;
59263;SDS011;45030;42.720;23.344;2022-10-04T03:24:59;4.68;;;3.10;;
59263;SDS011;45030;42.720;23.344;2022-10-04T03:27:27;3.35;;;2.50;;
59263;SDS011;45030;42.720;23.344;2022-10-04T03:29:54;5.20;;;3.47;;
59263;SDS011;45030;42.720;23.344;2022-10-04T03:32:19;3.75;;;3.03;;
59263;SDS011;45030;42.720;23.344;2022-10-04T03:34:52;5.88;;;3.15;;
59263;SDS011;45030;42.720;23.344;2022-10-04T03:37:19;5.50;;;3.05;;
59263;SDS011;45030;42.720;23.344;2022-10-04T03:39:46;4.72;;;2.95;;
59263;SDS011;45030;42.720;23.344;2022-10-04T03:42:25;4.03;;;2.70;;
59263;SDS011;45030;42.720;23.344;2022-10-04T03:44:55;3.90;;;2.70;;
59263;SDS011;45030;42.720;23.344;2022-10-04T03:47:25;5.03;;;3.13;;
59263;SDS011;45030;42.720;23.344;2022-10-04T03:49:51;6.00;;;2.75;;
59263;SDS011;45030;42.720;23.344;2022-10-04T03:52:25;3.60;;;2.97;;
59263;SDS011;45030;42.720;23.344;2022-10-04T03:54:53;4.10;;;2.95;;
59263;SDS011;45030;42.720;23.344;2022-10-04T03:57:21;6.47;;;3.13;;
59263;SDS011;45030;42.720;23.344;2022-10-04T03:59:47;6.88;;;3.03;;
59263;SDS011;45030;42.720;23.344;2022-10-04T04:02:20;5.25;;;3.15;;
59263;SDS011;45030;42.720;23.344;2022-10-04T04:05:05;3.13;;;2.63;;
59263;SDS011;45030;42.720;23.344;2022-10-04T04:14:51;10.30;;;3.10;;
59263;SDS011;45030;42.720;23.344;2022-10-04T04:19:54;5.28;;;3.60;;
59263;SDS011;45030;42.720;23.344;2022-10-04T04:22:21;4.30;;;3.13;;
59263;SDS011;45030;42.720;23.344;2022-10-04T04:24:46;4.25;;;2.50;;
59263;SDS011;45030;42.720;23.344;2022-10-04T04:27:13;4.30;;;2.83;;
59263;SDS011;45030;42.720;23.344;2022-10-04T04:29:50;5.47;;;3.10;;
59263;SDS011;45030;42.720;23.344;2022-10-04T04:32:17;6.55;;;3.53;;
59263;SDS011;45030;42.720;23.344;2022-10-04T04:34:49;3.70;;;2.63;;
59263;SDS011;45030;42.720;23.344;2022-10-04T04:37:14;5.95;;;3.55;;
59263;SDS011;45030;42.720;23.344;2022-10-04T04:39:40;3.92;;;3.10;;
59263;SDS011;45030;42.720;23.344;2022-10-04T04:42:25;4.10;;;3.20;;
59263;SDS011;45030;42.720;23.344;2022-10-04T04:44:53;4.78;;;3.22;;
59263;SDS011;45030;42.720;23.344;2022-10-04T04:47:23;4.30;;;3.90;;
59263;SDS011;45030;42.720;23.344;2022-10-04T04:49:50;8.65;;;3.58;;
59263;SDS011;45030;42.720;23.344;2022-10-04T04:52:15;5.70;;;2.83;;
59263;SDS011;45030;42.720;23.344;2022-10-04T04:54:44;6.05;;;3.28;;
59263;SDS011;45030;42.720;23.344;2022-10-04T04:57:13;6.68;;;4.20;;
59263;SDS011;45030;42.720;23.344;2022-10-04T04:59:39;4.85;;;3.60;;
59263;SDS011;45030;42.720;23.344;2022-10-04T05:02:25;6.15;;;4.45;;
59263;SDS011;45030;42.720;23.344;2022-10-04T05:05:08;6.60;;;4.05;;
59263;SDS011;45030;42.720;23.344;2022-10-04T05:07:34;5.18;;;4.28;;
59263;SDS011;45030;42.720;23.344;2022-10-04T05:09:59;6.95;;;3.80;;
59263;SDS011;45030;42.720;23.344;2022-10-04T05:12:24;5.00;;;3.95;;
59263;SDS011;45030;42.720;23.344;2022-10-04T05:14:51;6.28;;;3.28;;
59263;SDS011;45030;42.720;23.344;2022-10-04T05:17:17;3.95;;;3.40;;
59263;SDS011;45030;42.720;23.344;2022-10-04T05:19:44;5.32;;;3.78;;
59263;SDS011;45030;42.720;23.344;2022-10-04T05:22:11;5.80;;;2.72;;
59263;SDS011;45030;42.720;23.344;2022-10-04T05:24:38;7.25;;;3.67;;
59263;SDS011;45030;42.720;23.344;2022-10-04T05:27:05;4.22;;;3.47;;
59263;SDS011;45030;42.720;23.344;2022-10-04T05:29:35;5.03;;;3.60;;
59263;SDS011;45030;42.720;23.344;2022-10-04T05:32:04;5.60;;;3.30;;
59263;SDS011;45030;42.720;23.344;2022-10-04T05:34:39;4.55;;;3.75;;
59263;SDS011;45030;42.720;23.344;2022-10-04T05:39:41;5.15;;;3.72;;
59263;SDS011;45030;42.720;23.344;2022-10-04T05:42:15;4.70;;;3.53;;
59263;SDS011;45030;42.720;23.344;2022-10-04T05:44:48;3.60;;;3.10;;
59263;SDS011;45030;42.720;23.344;2022-10-04T05:47:16;6.20;;;3.88;;
59263;SDS011;45030;42.720;23.344;2022-10-04T05:49:46;4.07;;;2.63;;
59263;SDS011;45030;42.720;23.344;2022-10-04T05:52:27;5.70;;;3.15;;
59263;SDS011;45030;42.720;23.344;2022-10-04T06:02:41;6.32;;;3.03;;
59263;SDS011;45030;42.720;23.344;2022-10-04T06:05:12;3.58;;;3.08;;
59263;SDS011;45030;42.720;23.344;2022-10-04T06:18:18;4.25;;;2.47;;
59263;SDS011;45030;42.720;23.344;2022-10-04T06:23:12;5.20;;;2.60;;
59263;SDS011;45030;42.720;23.344;2022-10-04T06:25:46;4.72;;;3.17;;
59263;SDS011;45030;42.720;23.344;2022-10-04T06:28:20;6.35;;;3.60;;
59263;SDS011;45030;42.720;23.344;2022-10-04T06:33:33;5.05;;;3.10;;
59263;SDS011;45030;42.720;23.344;2022-10-04T06:36:21;4.05;;;3.42;;
59263;SDS011;45030;42.720;23.344;2022-10-04T06:39:06;5.55;;;2.92;;
59263;SDS011;45030;42.720;23.344;2022-10-04T06:46:45;3.03;;;2.17;;
59263;SDS011;45030;42.720;23.344;2022-10-04T06:49:27;3.40;;;2.00;;
59263;SDS011;45030;42.720;23.344;2022-10-04T06:56:53;5.82;;;2.30;;
59263;SDS011;45030;42.720;23.344;2022-10-04T07:01:57;4.13;;;2.45;;
59263;SDS011;45030;42.720;23.344;2022-10-04T07:04:43;2.10;;;1.75;;
59263;SDS011;45030;42.720;23.344;2022-10-04T07:10:34;4.03;;;3.03;;
59263;SDS011;45030;42.720;23.344;2022-10-04T07:12:37;4.68;;;3.25;;
59263;SDS011;45030;42.720;23.344;2022-10-04T07:15:05;6.47;;;3.50;;
59263;SDS011;45030;42.720;23.344;2022-10-04T07:17:37;5.03;;;3.42;;
59263;SDS011;45030;42.720;23.344;2022-10-04T07:20:04;4.35;;;3.30;;
59263;SDS011;45030;42.720;23.344;2022-10-04T07:22:33;3.38;;;2.95;;
59263;SDS011;45030;42.720;23.344;2022-10-04T07:25:12;2.75;;;2.17;;
59263;SDS011;45030;42.720;23.344;2022-10-04T07:30:11;5.00;;;2.80;;
59263;SDS011;45030;42.720;23.344;2022-10-04T07:32:37;5.07;;;2.22;;
59263;SDS011;45030;42.720;23.344;2022-10-04T07:37:35;3.63;;;2.85;;
59263;SDS011;45030;42.720;23.344;2022-10-04T07:40:08;3.92;;;2.78;;
59263;SDS011;45030;42.720;23.344;2022-10-04T07:42:46;5.30;;;3.15;;
59263;SDS011;45030;42.720;23.344;2022-10-04T07:45:18;7.47;;;4.07;;
59263;SDS011;45030;42.720;23.344;2022-10-04T07:47:44;5.88;;;3.55;;
59263;SDS011;45030;42.720;23.344;2022-10-04T07:50:23;4.65;;;2.67;;
59263;SDS011;45030;42.720;23.344;2022-10-04T07:53:03;3.15;;;2.85;;
59263;SDS011;45030;42.720;23.344;2022-10-04T08:01:16;3.83;;;2.90;;
59263;SDS011;45030;42.720;23.344;2022-10-04T08:06:11;4.55;;;3.20;;
59263;SDS011;45030;42.720;23.344;2022-10-04T08:11:20;3.45;;;2.53;;
59263;SDS011;45030;42.720;23.344;2022-10-04T08:16:33;4.40;;;2.53;;
59263;SDS011;45030;42.720;23.344;2022-10-04T08:22:11;3.25;;;2.60;;
59263;SDS011;45030;42.720;23.344;2022-10-04T08:29:38;4.82;;;3.17;;
59263;SDS011;45030;42.720;23.344;2022-10-04T08:40:03;4.07;;;2.50;;
59263;SDS011;45030;42.720;23.344;2022-10-04T09:04:00;2.20;;;2.00;;
59263;SDS011;45030;42.720;23.344;2022-10-04T09:16:51;4.35;;;2.03;;
59263;SDS011;45030;42.720;23.344;2022-10-04T09:19:28;2.85;;;2.15;;
59263;SDS011;45030;42.720;23.344;2022-10-04T09:24:57;2.90;;;1.85;;
59263;SDS011;45030;42.720;23.344;2022-10-04T09:27:48;3.80;;;1.80;;
59263;SDS011;45030;42.720;23.344;2022-10-04T09:32:44;5.28;;;2.30;;
59263;SDS011;45030;42.720;23.344;2022-10-04T09:35:23;3.70;;;2.10;;
59263;SDS011;45030;42.720;23.344;2022-10-04T09:48:24;3.03;;;1.90;;
59263;SDS011;45030;42.720;23.344;2022-10-04T09:53:35;3.63;;;2.45;;
59263;SDS011;45030;42.720;23.344;2022-10-04T10:01:20;4.28;;;2.08;;
59263;SDS011;45030;42.720;23.344;2022-10-04T10:08:57;3.70;;;2.00;;
59263;SDS011;45030;42.720;23.344;2022-10-04T10:37:14;4.38;;;2.20;;
59263;SDS011;45030;42.720;23.344;2022-10-04T10:44:46;3.35;;;1.95;;
59263;SDS011;45030;42.720;23.344;2022-10-04T10:47:26;3.50;;;2.42;;
59263;SDS011;45030;42.720;23.344;2022-10-04T11:15:48;2.70;;;2.30;;
59263;SDS011;45030;42.720;23.344;2022-10-04T11:47:07;3.20;;;1.88;;
59263;SDS011;45030;42.720;23.344;2022-10-04T11:54:55;4.82;;;2.35;;
59263;SDS011;45030;42.720;23.344;2022-10-04T11:59:58;5.45;;;2.10;;
59263;SDS011;45030;42.720;23.344;2022-10-04T12:07:44;4.88;;;2.30;;
59263;SDS011;45030;42.720;23.344;2022-10-04T12:12:55;3.42;;;1.90;;
59263;SDS011;45030;42.720;23.344;2022-10-04T12:33:25;2.03;;;1.83;;
59263;SDS011;45030;42.720;23.344;2022-10-04T12:41:11;1.88;;;1.60;;
59263;SDS011;45030;42.720;23.344;2022-10-04T12:44:04;3.25;;;2.10;;
59263;SDS011;45030;42.720;23.344;2022-10-04T12:51:50;2.35;;;1.92;;
59263;SDS011;45030;42.720;23.344;2022-10-04T13:04:38;3.60;;;2.38;;
59263;SDS011;45030;42.720;23.344;2022-10-04T13:23:02;2.60;;;1.73;;
59263;SDS011;45030;42.720;23.344;2022-10-04T13:26:14;2.67;;;1.85;;
59263;SDS011;45030;42.720;23.344;2022-10-04T13:38:18;4.50;;;2.90;;
59263;SDS011;45030;42.720;23.344;2022-10-04T13:50:56;4.13;;;2.40;;
59263;SDS011;45030;42.720;23.344;2022-10-04T13:59:16;5.18;;;2.38;;
59263;SDS011;45030;42.720;23.344;2022-10-04T14:04:36;3.17;;;2.72;;
59263;SDS011;45030;42.720;23.344;2022-10-04T14:12:23;5.35;;;3.50;;
59263;SDS011;45030;42.720;23.344;2022-10-04T14:27:44;5.28;;;2.50;;
59263;SDS011;45030;42.720;23.344;2022-10-04T14:30:38;5.13;;;2.90;;
59263;SDS011;45030;42.720;23.344;2022-10-04T14:34:20;2.63;;;2.25;;
59263;SDS011;45030;42.720;23.344;2022-10-04T14:46:44;2.85;;;2.30;;
59263;SDS011;45030;42.720;23.344;2022-10-04T14:52:04;6.38;;;3.40;;
59263;SDS011;45030;42.720;23.344;2022-10-04T14:54:51;4.55;;;3.30;;
59263;SDS011;45030;42.720;23.344;2022-10-04T15:05:33;4.63;;;3.30;;
59263;SDS011;45030;42.720;23.344;2022-10-04T15:13:34;6.85;;;4.53;;
59263;SDS011;45030;42.720;23.344;2022-10-04T15:18:29;4.28;;;3.03;;
59263;SDS011;45030;42.720;23.344;2022-10-04T15:26:04;6.30;;;3.28;;
59263;SDS011;45030;42.720;23.344;2022-10-04T15:33:54;6.38;;;4.20;;
59263;SDS011;45030;42.720;23.344;2022-10-04T15:36:23;9.93;;;5.15;;
59263;SDS011;45030;42.720;23.344;2022-10-04T15:38:58;3.95;;;3.00;;
59263;SDS011;45030;42.720;23.344;2022-10-04T15:49:35;3.65;;;2.88;;
59263;SDS011;45030;42.720;23.344;2022-10-04T15:52:17;5.57;;;3.10;;
59263;SDS011;45030;42.720;23.344;2022-10-04T16:00:12;5.53;;;3.38;;
59263;SDS011;45030;42.720;23.344;2022-10-04T16:02:45;5.78;;;3.85;;
59263;SDS011;45030;42.720;23.344;2022-10-04T16:15:42;9.90;;;3.92;;
59263;SDS011;45030;42.720;23.344;2022-10-04T16:28:50;8.05;;;4.30;;
59263;SDS011;45030;42.720;23.344;2022-10-04T16:36:20;6.90;;;4.07;;
59263;SDS011;45030;42.720;23.344;2022-10-04T16:38:47;7.35;;;4.07;;
59263;SDS011;45030;42.720;23.344;2022-10-04T16:41:35;6.85;;;4.47;;
59263;SDS011;45030;42.720;23.344;2022-10-04T16:44:04;8.90;;;5.20;;
59263;SDS011;45030;42.720;23.344;2022-10-04T16:46:38;6.63;;;5.40;;
59263;SDS011;45030;42.720;23.344;2022-10-04T16:54:46;8.00;;;5.28;;
59263;SDS011;45030;42.720;23.344;2022-10-04T16:57:18;8.35;;;4.88;;
59263;SDS011;45030;42.720;23.344;2022-10-04T16:59:48;10.48;;;6.00;;
59263;SDS011;45030;42.720;23.344;2022-10-04T17:07:34;9.10;;;5.35;;
59263;SDS011;45030;42.720;23.344;2022-10-04T17:20:36;8.60;;;6.20;;
59263;SDS011;45030;42.720;23.344;2022-10-04T17:25:58;9.65;;;6.32;;
59263;SDS011;45030;42.720;23.344;2022-10-04T17:28:33;10.32;;;6.90;;
59263;SDS011;45030;42.720;23.344;2022-10-04T17:49:08;9.32;;;4.95;;
59263;SDS011;45030;42.720;23.344;2022-10-04T17:51:53;6.82;;;5.30;;
59263;SDS011;45030;42.720;23.344;2022-10-04T17:54:45;7.38;;;5.70;;
59263;SDS011;45030;42.720;23.344;2022-10-04T17:57:48;10.40;;;6.82;;
59263;SDS011;45030;42.720;23.344;2022-10-04T18:00:22;9.95;;;6.40;;
59263;SDS011;45030;42.720;23.344;2022-10-04T18:02:53;7.97;;;5.40;;
59263;SDS011;45030;42.720;23.344;2022-10-04T18:05:42;7.47;;;5.50;;
59263;SDS011;45030;42.720;23.344;2022-10-04T18:10:56;9.60;;;5.68;;
59263;SDS011;45030;42.720;23.344;2022-10-04T18:15:59;11.15;;;6.68;;
59263;SDS011;45030;42.720;23.344;2022-10-04T18:18:27;11.88;;;6.57;;
59263;SDS011;45030;42.720;23.344;2022-10-04T18:21:04;7.13;;;5.32;;
59263;SDS011;45030;42.720;23.344;2022-10-04T18:23:32;9.13;;;5.38;;
59263;SDS011;45030;42.720;23.344;2022-10-04T18:26:09;6.95;;;4.93;;
59263;SDS011;45030;42.720;23.344;2022-10-04T18:28:34;10.38;;;5.57;;
59263;SDS011;45030;42.720;23.344;2022-10-04T18:31:10;11.75;;;6.07;;
59263;SDS011;45030;42.720;23.344;2022-10-04T18:36:23;7.82;;;5.22;;
59263;SDS011;45030;42.720;23.344;2022-10-04T18:39:24;8.23;;;5.47;;
59263;SDS011;45030;42.720;23.344;2022-10-04T18:41:43;11.40;;;6.20;;
59263;SDS011;45030;42.720;23.344;2022-10-04T18:47:10;7.40;;;4.53;;
59263;SDS011;45030;42.720;23.344;2022-10-04T18:49:48;6.93;;;4.78;;
59263;SDS011;45030;42.720;23.344;2022-10-04T18:52:27;9.98;;;4.80;;
59263;SDS011;45030;42.720;23.344;2022-10-04T18:57:40;11.00;;;6.10;;
59263;SDS011;45030;42.720;23.344;2022-10-04T19:00:24;8.45;;;6.50;;
59263;SDS011;45030;42.720;23.344;2022-10-04T19:13:40;9.30;;;6.22;;
59263;SDS011;45030;42.720;23.344;2022-10-04T19:21:44;11.77;;;5.18;;
59263;SDS011;45030;42.720;23.344;2022-10-04T19:26:49;9.40;;;5.38;;
59263;SDS011;45030;42.720;23.344;2022-10-04T19:31:44;5.80;;;4.63;;
59263;SDS011;45030;42.720;23.344;2022-10-04T19:34:17;7.97;;;5.38;;
59263;SDS011;45030;42.720;23.344;2022-10-04T19:42:55;7.82;;;6.05;;
59263;SDS011;45030;42.720;23.344;2022-10-04T19:45:12;9.32;;;5.95;;
59263;SDS011;45030;42.720;23.344;2022-10-04T19:52:35;6.50;;;4.90;;
59263;SDS011;45030;42.720;23.344;2022-10-04T19:55:29;6.63;;;5.20;;
59263;SDS011;45030;42.720;23.344;2022-10-04T19:58:34;7.85;;;4.68;;
59263;SDS011;45030;42.720;23.344;2022-10-04T20:00:39;7.03;;;5.38;;
59263;SDS011;45030;42.720;23.344;2022-10-04T20:03:11;7.03;;;5.68;;
59263;SDS011;45030;42.720;23.344;2022-10-04T20:05:43;7.93;;;6.10;;
59263;SDS011;45030;42.720;23.344;2022-10-04T20:08:10;8.02;;;5.90;;
59263;SDS011;45030;42.720;23.344;2022-10-04T20:10:35;7.20;;;5.53;;
59263;SDS011;45030;42.720;23.344;2022-10-04T20:13:21;8.23;;;5.63;;
59263;SDS011;45030;42.720;23.344;2022-10-04T20:26:01;11.23;;;6.75;;
59263;SDS011;45030;42.720;23.344;2022-10-04T20:30:54;10.32;;;6.85;;
59263;SDS011;45030;42.720;23.344;2022-10-04T20:35:58;12.65;;;7.82;;
59263;SDS011;45030;42.720;23.344;2022-10-04T20:38:41;12.00;;;8.32;;
59263;SDS011;45030;42.720;23.344;2022-10-04T20:41:36;14.07;;;10.48;;
59263;SDS011;45030;42.720;23.344;2022-10-04T20:43:52;20.08;;;15.20;;
59263;SDS011;45030;42.720;23.344;2022-10-04T20:46:21;13.43;;;8.70;;
59263;SDS011;45030;42.720;23.344;2022-10-04T20:48:47;10.45;;;7.95;;
59263;SDS011;45030;42.720;23.344;2022-10-04T20:51:13;12.00;;;7.70;;
59263;SDS011;45030;42.720;23.344;2022-10-04T20:53:41;11.80;;;9.52;;
59263;SDS011;45030;42.720;23.344;2022-10-04T20:58:35;21.15;;;13.70;;
59263;SDS011;45030;42.720;23.344;2022-10-04T21:01:03;16.58;;;11.38;;
59263;SDS011;45030;42.720;23.344;2022-10-04T21:07:15;18.15;;;9.70;;
59263;SDS011;45030;42.720;23.344;2022-10-04T21:09:34;12.45;;;8.88;;
59263;SDS011;45030;42.720;23.344;2022-10-04T21:11:59;13.63;;;9.02;;
59263;SDS011;45030;42.720;23.344;2022-10-04T21:14:26;14.00;;;10.07;;
59263;SDS011;45030;42.720;23.344;2022-10-04T21:16:52;15.70;;;10.00;;
59263;SDS011;45030;42.720;23.344;2022-10-04T21:19:29;16.85;;;9.73;;
59263;SDS011;45030;42.720;23.344;2022-10-04T21:21:55;14.60;;;9.68;;
59263;SDS011;45030;42.720;23.344;2022-10-04T21:27:01;19.50;;;12.40;;
59263;SDS011;45030;42.720;23.344;2022-10-04T21:29:27;19.00;;;11.68;;
59263;SDS011;45030;42.720;23.344;2022-10-04T21:31:54;24.10;;;17.70;;
59263;SDS011;45030;42.720;23.344;2022-10-04T21:34:19;30.52;;;22.92;;
59263;SDS011;45030;42.720;23.344;2022-10-04T21:36:44;16.38;;;11.18;;
59263;SDS011;45030;42.720;23.344;2022-10-04T21:39:10;15.73;;;9.68;;
59263;SDS011;45030;42.720;23.344;2022-10-04T21:41:35;14.52;;;9.80;;
59263;SDS011;45030;42.720;23.344;2022-10-04T21:44:00;14.75;;;10.40;;
59263;SDS011;45030;42.720;23.344;2022-10-04T21:46:25;13.15;;;10.27;;
59263;SDS011;45030;42.720;23.344;2022-10-04T21:48:51;14.52;;;9.70;;
59263;SDS011;45030;42.720;23.344;2022-10-04T21:51:16;16.90;;;10.00;;
59263;SDS011;45030;42.720;23.344;2022-10-04T21:53:41;13.57;;;9.93;;
59263;SDS011;45030;42.720;23.344;2022-10-04T21:56:06;14.45;;;10.27;;
59263;SDS011;45030;42.720;23.344;2022-10-04T21:58:32;18.90;;;11.38;;
59263;SDS011;45030;42.720;23.344;2022-10-04T22:00:57;18.95;;;11.32;;
59263;SDS011;45030;42.720;23.344;2022-10-04T22:03:22;17.05;;;11.52;;
59263;SDS011;45030;42.720;23.344;2022-10-04T22:05:48;17.77;;;11.55;;
59263;SDS011;45030;42.720;23.344;2022-10-04T22:08:13;31.23;;;20.17;;
59263;SDS011;45030;42.720;23.344;2022-10-04T22:10:38;43.92;;;26.25;;
59263;SDS011;45030;42.720;23.344;2022-10-04T22:13:04;45.65;;;31.38;;
59263;SDS011;45030;42.720;23.344;2022-10-04T22:15:29;43.70;;;29.00;;
59263;SDS011;45030;42.720;23.344;2022-10-04T22:17:54;44.33;;;28.00;;
59263;SDS011;45030;42.720;23.344;2022-10-04T22:20:20;34.30;;;21.63;;
59263;SDS011;45030;42.720;23.344;2022-10-04T22:22:45;35.45;;;20.30;;
59263;SDS011;45030;42.720;23.344;2022-10-04T22:25:15;29.65;;;18.90;;
59263;SDS011;45030;42.720;23.344;2022-10-04T22:27:40;26.65;;;16.55;;
59263;SDS011;45030;42.720;23.344;2022-10-04T22:30:06;27.90;;;18.23;;
59263;SDS011;45030;42.720;23.344;2022-10-04T22:32:35;25.70;;;15.70;;
59263;SDS011;45030;42.720;23.344;2022-10-04T22:35:09;20.40;;;13.25;;
59263;SDS011;45030;42.720;23.344;2022-10-04T22:37:36;20.02;;;13.25;;
59263;SDS011;45030;42.720;23.344;2022-10-04T22:40:01;20.25;;;12.25;;
59263;SDS011;45030;42.720;23.344;2022-10-04T22:42:27;17.85;;;11.40;;
59263;SDS011;45030;42.720;23.344;2022-10-04T22:44:52;21.70;;;12.50;;
59263;SDS011;45030;42.720;23.344;2022-10-04T22:47:17;20.42;;;13.27;;
59263;SDS011;45030;42.720;23.344;2022-10-04T22:49:43;22.83;;;13.65;;
59263;SDS011;45030;42.720;23.344;2022-10-04T22:52:11;24.73;;;12.70;;
59263;SDS011;45030;42.720;23.344;2022-10-04T22:54:37;21.30;;;12.00;;
59263;SDS011;45030;42.720;23.344;2022-10-04T22:57:03;24.85;;;12.90;;
59263;SDS011;45030;42.720;23.344;2022-10-04T22:59:38;18.55;;;10.13;;
59263;SDS011;45030;42.720;23.344;2022-10-04T23:02:05;26.80;;;11.63;;
59263;SDS011;45030;42.720;23.344;2022-10-04T23:04:31;17.58;;;10.88;;
59263;SDS011;45030;42.720;23.344;2022-10-04T23:06:56;17.30;;;10.90;;
59263;SDS011;45030;42.720;23.344;2022-10-04T23:09:22;20.50;;;12.10;;
59263;SDS011;45030;42.720;23.344;2022-10-04T23:11:47;26.85;;;12.65;;
59263;SDS011;45030;42.720;23.344;2022-10-04T23:14:12;15.55;;;11.23;;
59263;SDS011;45030;42.720;23.344;2022-10-04T23:16:38;21.60;;;12.43;;
59263;SDS011;45030;42.720;23.344;2022-10-04T23:19:14;17.60;;;11.57;;
59263;SDS011;45030;42.720;23.344;2022-10-04T23:21:42;17.27;;;11.10;;
59263;SDS011;45030;42.720;23.344;2022-10-04T23:24:20;18.48;;;10.73;;
59263;SDS011;45030;42.720;23.344;2022-10-04T23:26:47;23.17;;;14.07;;
59263;SDS011;45030;42.720;23.344;2022-10-04T23:31:38;23.98;;;14.20;;
59263;SDS011;45030;42.720;23.344;2022-10-04T23:34:09;24.42;;;14.23;;
59263;SDS011;45030;42.720;23.344;2022-10-04T23:36:36;30.25;;;15.40;;
59263;SDS011;45030;42.720;23.344;2022-10-04T23:39:02;25.52;;;13.25;;
59263;SDS011;45030;42.720;23.344;2022-10-04T23:41:27;22.70;;;13.82;;
59263;SDS011;45030;42.720;23.344;2022-10-04T23:43:52;25.17;;;13.75;;
59263;SDS011;45030;42.720;23.344;2022-10-04T23:46:19;24.15;;;14.38;;
59263;SDS011;45030;42.720;23.344;2022-10-04T23:48:45;17.83;;;12.13;;
59263;SDS011;45030;42.720;23.344;2022-10-04T23:51:13;18.95;;;12.73;;
59263;SDS011;45030;42.720;23.344;2022-10-04T23:53:39;20.00;;;12.20;;
59263;SDS011;45030;42.720;23.344;2022-10-04T23:56:21;22.52;;;12.90;;
59263;SDS011;45030;42.720;23.344;2022-10-04T23:58:47;20.40;;;12.25;;
